Cleveland, OH

12:38 AM EDT on May 30, 2017 (GMT -0400)
Cleveland East Side | | Change Station
Active Advisory: Severe Thunderstorm Warning

Elev 0 ft 41.51 °N, 81.64 °W | Updated 19 seconds ago

Mostly Cloudy
Mostly Cloudy
65.8 °F
Feels Like 65.8 °F
N
0.0
Wind Variable Wind from NE

Today
High -- | Low -- °F
--% Chance of Precip.
Yesterday
High -- | Low -- °F
Precip. -- in
Pressure 29.90 in
Visibility 10.0 miles
Clouds Few 7500 ft
Mostly Cloudy 9500 ft
Dew Point 54 °F
Humidity 66%
Rainfall 0.00 in
Snow Depth Not available.
5:56 AM 8:52 PM
Waxing Crescent, 26% visible
SPECI KBKL 300428Z 19019G26KT 10SM FEW075 BKN095 19/11 A2990 RMK AO2 PK WND 20034/0408 LTG DSNT E AND SE RAB06E23 P0000 T01890111
Pressure 29.90 in
Visibility 10.0 miles
Clouds Few 7500 ft
Mostly Cloudy 9500 ft
Dew Point 54 °F
Humidity 66%
Rainfall 0.00 in
Snow Depth Not available.
5:56 AM 8:52 PM
Waxing Crescent, 26% visible
SPECI KBKL 300428Z 19019G26KT 10SM FEW075 BKN095 19/11 A2990 RMK AO2 PK WND 20034/0408 LTG DSNT E AND SE RAB06E23 P0000 T01890111

Get Your Daily Forecast Email!

Thanks for signing up!

Be on the lookout for a verification email in your inbox.

You'll start receiving severe weather alerts in your inbox..

×

10-Day Weather Forecast

Almanac

Astronomy

May. 30, 2017 Rise Set
Actual Time
Civil Twilight
Nautical Twilight
Astronomical Twilight
Moon
Length of Visible Light
Length of Day
Tomorrow will be .
, % of the Moon is Illuminated

Today's Extremes

State Highs State Lows

Community

WunderPhotos

Category 6

Welcome to Category 6. This is the collective home for Weather Underground's featured writeups by Dr. Jeff Masters (right), Bob Henson (left), Chris Burt, and other regular contributors.

Nearby

Air Quality

  Air Quality AQ Index Pollutant
Not available.

Snow Depth

Station Depth Elevation

Earthquake Activity

City Distance Mag. Time & Date
Minimum magnitude displayed is 2.5.

Coastal Water Temperatures

Place Temperature

Stations

Nearby Weather Stations

Station Location Temp. Windchill Dew Point Humidity Wind Precip. Elev Updated Type
                   

Watches & Warnings

Severe Thunderstorm Warning
Issued: 12:27 AM EDT May. 30, 2017 – National Weather Service

... The Severe Thunderstorm Warning for eastern Cuyahoga County will
expire at 1230 am EDT...

the storm which prompted the warning has weakened below severe
limits, and has moved east of Cuyahoga County. Therefore, the
warning will be allowed to expire.

Lat... Lon 4162 8149 4157 8149 4156 8139 4145 8139
      4144 8137 4142 8139 4137 8139 4135 8155
      4135 8159 4134 8163 4145 8170 4151 8170
time... Mot... loc 0426z 233deg 47kt 4154 8129


Kosarik